createdAt,value
2022-12-18T00:00:49.576Z,75.91
2022-12-18T00:03:19.553Z,76.33
2022-12-18T00:05:52.504Z,76.00
2022-12-18T00:08:23.223Z,75.97
2022-12-18T00:10:55.293Z,76.00
2022-12-18T00:13:31.203Z,76.32
2022-12-18T00:16:05.950Z,76.12
2022-12-18T00:18:36.575Z,75.94
2022-12-18T00:21:08.993Z,76.46
2022-12-18T00:23:40.308Z,76.06
2022-12-18T00:26:22.642Z,76.54
2022-12-18T00:28:56.596Z,76.51
2022-12-18T00:31:28.081Z,76.12
2022-12-18T00:33:58.787Z,76.42
2022-12-18T00:36:31.621Z,76.73
2022-12-18T00:39:02.351Z,76.39
2022-12-18T00:41:47.134Z,76.59
2022-12-18T00:44:18.803Z,75.99
2022-12-18T00:46:50.076Z,76.75
2022-12-18T00:49:20.536Z,76.90
2022-12-18T00:51:51.206Z,76.68
2022-12-18T00:54:21.542Z,76.36
2022-12-18T00:56:53.618Z,76.72
2022-12-18T00:59:23.495Z,76.58
2022-12-18T01:01:54.075Z,76.41
2022-12-18T01:04:23.706Z,77.20
2022-12-18T01:06:53.672Z,77.20
2022-12-18T01:09:23.302Z,76.75
2022-12-18T01:11:57.604Z,77.20
2022-12-18T01:14:27.316Z,76.97
2022-12-18T01:16:56.824Z,76.89
2022-12-18T01:19:27.247Z,77.17
2022-12-18T01:21:57.884Z,76.86
2022-12-18T01:24:27.515Z,76.69
2022-12-18T01:26:59.630Z,77.04
2022-12-18T01:29:29.163Z,76.79
2022-12-18T01:31:59.202Z,76.59
2022-12-18T01:34:28.821Z,76.64
2022-12-18T01:36:58.459Z,76.64
2022-12-18T01:39:28.103Z,76.29
2022-12-18T01:42:06.472Z,76.50
2022-12-18T01:45:04.452Z,76.78
2022-12-18T01:47:38.764Z,76.67
2022-12-18T01:50:14.013Z,76.40
2022-12-18T01:52:46.482Z,76.48
2022-12-18T01:55:18.793Z,76.78
2022-12-18T01:57:53.224Z,76.97
2022-12-18T02:00:24.901Z,76.74
2022-12-18T02:02:55.483Z,77.10
2022-12-18T02:05:32.863Z,76.79
2022-12-18T02:08:11.504Z,76.51
2022-12-18T02:10:50.362Z,76.65
2022-12-18T02:13:33.789Z,76.90
2022-12-18T02:16:11.668Z,77.22
2022-12-18T02:18:48.975Z,77.22
2022-12-18T02:21:31.375Z,77.25
2022-12-18T02:24:15.194Z,76.89
2022-12-18T02:26:52.644Z,76.82
2022-12-18T02:29:28.525Z,77.15
2022-12-18T02:32:01.413Z,76.63
2022-12-18T02:34:33.480Z,76.86
2022-12-18T02:37:07.787Z,76.91
2022-12-18T02:39:40.194Z,77.08
2022-12-18T02:42:13.527Z,77.11
2022-12-18T02:44:48.313Z,77.31
2022-12-18T02:47:24.193Z,77.28
2022-12-18T02:50:01.841Z,77.39
2022-12-18T02:52:42.713Z,77.83
2022-12-18T02:55:29.896Z,77.41
2022-12-18T02:58:14.690Z,77.71
2022-12-18T03:00:52.145Z,77.28
2022-12-18T03:03:27.545Z,77.57
2022-12-18T03:06:02.525Z,77.42
2022-12-18T03:08:35.944Z,77.22
2022-12-18T03:11:08.435Z,77.62
2022-12-18T03:13:44.051Z,77.42
2022-12-18T03:16:20.818Z,77.40
2022-12-18T03:18:53.167Z,77.52
2022-12-18T03:21:28.107Z,77.67
2022-12-18T03:23:59.287Z,77.75
2022-12-18T03:26:31.518Z,77.59
2022-12-18T03:29:11.216Z,77.55
2022-12-18T03:31:43.827Z,76.86
2022-12-18T03:34:18.384Z,77.38
2022-12-18T03:36:49.896Z,77.47
2022-12-18T03:39:19.567Z,77.53
2022-12-18T03:42:05.299Z,77.68
2022-12-18T03:44:56.057Z,77.93
2022-12-18T03:47:32.068Z,77.81
2022-12-18T03:50:15.794Z,77.96
2022-12-18T03:52:53.754Z,77.73
2022-12-18T03:55:25.549Z,78.10
2022-12-18T03:58:03.533Z,78.35
2022-12-18T04:00:46.450Z,78.07
2022-12-18T04:03:17.734Z,78.25
2022-12-18T04:05:54.073Z,78.38
2022-12-18T04:08:26.666Z,78.15
2022-12-18T04:11:05.339Z,78.24
2022-12-18T04:13:38.194Z,78.18
2022-12-18T04:16:19.544Z,78.29
2022-12-18T04:18:52.305Z,78.44
2022-12-18T04:21:23.960Z,78.08
2022-12-18T04:23:53.493Z,78.20
2022-12-18T04:26:25.049Z,78.37
2022-12-18T04:29:15.209Z,78.13
2022-12-18T04:31:47.942Z,78.56
2022-12-18T04:34:18.689Z,78.52
2022-12-18T04:36:53.165Z,78.91
2022-12-18T04:39:24.059Z,78.77
2022-12-18T04:41:57.049Z,78.72
2022-12-18T04:44:26.799Z,78.52
2022-12-18T04:46:59.183Z,78.57
2022-12-18T04:49:28.853Z,78.62
2022-12-18T04:51:58.486Z,78.60
2022-12-18T04:54:27.981Z,78.69
2022-12-18T04:56:57.485Z,78.80
2022-12-18T04:59:26.984Z,78.65
2022-12-18T05:01:59.223Z,78.92
2022-12-18T05:04:28.857Z,78.97
2022-12-18T05:06:58.382Z,78.84
2022-12-18T05:09:27.938Z,78.83
2022-12-18T05:11:57.603Z,78.75
2022-12-18T05:14:28.627Z,79.01
2022-12-18T05:17:01.345Z,79.02
2022-12-18T05:19:30.996Z,79.21
2022-12-18T05:22:00.561Z,78.87
2022-12-18T05:24:30.370Z,78.97
2022-12-18T05:27:00.047Z,78.68
2022-12-18T05:29:29.899Z,78.44
2022-12-18T05:32:02.119Z,78.58
2022-12-18T05:34:32.165Z,78.42
2022-12-18T05:37:01.743Z,78.33
2022-12-18T05:39:31.692Z,78.37
2022-12-18T05:42:01.192Z,78.07
2022-12-18T05:44:30.743Z,78.28
2022-12-18T05:47:02.905Z,78.22
2022-12-18T05:49:32.532Z,78.19
2022-12-18T05:52:02.059Z,78.28
2022-12-18T05:54:32.070Z,78.24
2022-12-18T05:57:02.315Z,78.10
2022-12-18T05:59:31.879Z,78.01
2022-12-18T06:02:04.247Z,78.28
2022-12-18T06:04:33.972Z,78.30
2022-12-18T06:07:09.039Z,78.08
2022-12-18T06:09:38.601Z,77.91
2022-12-18T06:12:09.155Z,78.20
2022-12-18T06:14:38.957Z,78.21
2022-12-18T06:17:11.106Z,78.13
2022-12-18T06:19:40.658Z,78.53
2022-12-18T06:22:10.137Z,78.15
2022-12-18T06:24:39.678Z,77.74
2022-12-18T06:27:09.357Z,77.81
2022-12-18T06:29:38.943Z,77.79
2022-12-18T06:32:11.600Z,77.87
2022-12-18T06:34:41.111Z,77.65
2022-12-18T06:37:10.646Z,77.42
2022-12-18T06:39:40.157Z,77.25
2022-12-18T06:42:09.637Z,77.23
2022-12-18T06:44:39.198Z,77.38
2022-12-18T06:47:11.497Z,77.09
2022-12-18T06:49:41.074Z,77.12
2022-12-18T06:52:10.541Z,77.11
2022-12-18T06:54:40.087Z,77.61
2022-12-18T06:57:09.577Z,77.28
2022-12-18T06:59:39.043Z,77.42
2022-12-18T07:02:15.565Z,77.44
2022-12-18T07:04:45.319Z,77.56
2022-12-18T07:07:14.888Z,77.56
2022-12-18T07:09:44.361Z,77.73
2022-12-18T07:12:13.856Z,77.62
2022-12-18T07:14:43.318Z,77.61
2022-12-18T07:17:15.410Z,77.61
2022-12-18T07:19:44.990Z,77.70
2022-12-18T07:22:14.507Z,77.59
2022-12-18T07:24:44.053Z,77.72
2022-12-18T07:27:13.614Z,77.72
2022-12-18T07:29:43.111Z,77.96
2022-12-18T07:32:15.212Z,77.70
2022-12-18T07:34:44.935Z,77.49
2022-12-18T07:37:14.418Z,77.50
2022-12-18T07:39:44.369Z,77.56
2022-12-18T07:42:26.372Z,77.40
2022-12-18T07:44:56.514Z,77.16
2022-12-18T07:47:29.162Z,77.60
2022-12-18T07:50:00.886Z,77.18
2022-12-18T07:52:30.352Z,77.13
2022-12-18T07:55:00.414Z,77.32
2022-12-18T08:00:20.259Z,77.01
2022-12-18T08:02:53.617Z,76.55
2022-12-18T08:05:23.745Z,76.36
2022-12-18T08:07:53.370Z,76.70
2022-12-18T08:10:24.042Z,76.81
2022-12-18T08:12:54.391Z,76.69
2022-12-18T08:15:23.866Z,76.48
2022-12-18T08:17:55.974Z,76.53
2022-12-18T08:20:25.520Z,76.18
2022-12-18T08:22:55.210Z,76.34
2022-12-18T08:25:24.798Z,76.17
2022-12-18T08:27:54.844Z,76.32
2022-12-18T08:30:24.491Z,76.09
2022-12-18T08:32:58.006Z,76.45
2022-12-18T08:35:32.812Z,76.41
2022-12-18T08:38:05.490Z,76.20
2022-12-18T08:40:34.994Z,75.85
2022-12-18T08:43:16.935Z,75.91
2022-12-18T08:45:46.609Z,75.80
2022-12-18T08:48:22.160Z,75.15
2022-12-18T08:50:58.085Z,75.17
2022-12-18T08:53:36.637Z,75.40
2022-12-18T08:56:06.787Z,75.59
2022-12-18T08:58:36.336Z,75.53
2022-12-18T09:01:06.360Z,75.36
2022-12-18T09:03:39.647Z,74.98
2022-12-18T09:06:10.378Z,74.86
2022-12-18T09:08:40.552Z,74.65
2022-12-18T09:11:16.729Z,74.76
2022-12-18T09:13:46.290Z,74.64
2022-12-18T09:16:15.930Z,74.65
2022-12-18T09:18:48.148Z,74.39
2022-12-18T09:21:19.725Z,74.56
2022-12-18T09:23:53.238Z,74.68
2022-12-18T09:26:23.092Z,73.93
2022-12-18T09:28:52.652Z,74.42
2022-12-18T09:31:24.274Z,74.43
2022-12-18T09:33:58.559Z,74.09
2022-12-18T09:36:28.154Z,73.95
2022-12-18T09:38:57.884Z,74.08
2022-12-18T09:41:41.945Z,73.39
2022-12-18T09:44:21.055Z,73.26
2022-12-18T09:46:56.153Z,73.52
2022-12-18T09:49:33.947Z,72.20
2022-12-18T09:52:08.490Z,72.74
2022-12-18T09:54:43.021Z,71.61
2022-12-18T09:57:17.095Z,71.98
2022-12-18T09:59:50.875Z,70.96
2022-12-18T10:02:22.728Z,70.88
2022-12-18T10:05:06.720Z,70.80
2022-12-18T10:07:46.578Z,71.06
2022-12-18T10:10:26.391Z,69.77
2022-12-18T10:13:04.755Z,69.62
2022-12-18T10:15:40.501Z,69.53
2022-12-18T10:18:26.409Z,69.08
2022-12-18T10:21:04.149Z,68.67
2022-12-18T10:23:47.956Z,67.36
2022-12-18T10:26:18.184Z,67.84
2022-12-18T10:28:48.609Z,67.41
2022-12-18T10:31:20.681Z,66.91
2022-12-18T10:33:53.273Z,66.73
2022-12-18T10:36:27.337Z,67.01
2022-12-18T10:38:56.831Z,67.08
2022-12-18T10:41:31.892Z,67.00
2022-12-18T10:44:18.392Z,66.38
2022-12-18T10:46:49.401Z,66.19
2022-12-18T10:49:25.605Z,65.23
2022-12-18T10:52:10.222Z,65.98
2022-12-18T10:54:40.118Z,65.25
2022-12-18T10:57:21.247Z,64.55
2022-12-18T10:59:56.187Z,65.51
2022-12-18T11:02:31.921Z,64.46
2022-12-18T11:05:01.644Z,65.21
2022-12-18T11:07:51.945Z,64.16
2022-12-18T11:10:22.843Z,63.87
2022-12-18T11:12:52.589Z,63.63
2022-12-18T11:15:24.990Z,64.07
2022-12-18T11:17:55.899Z,63.10
2022-12-18T11:20:34.273Z,63.36
2022-12-18T11:23:08.838Z,63.39
2022-12-18T11:25:39.304Z,62.74
2022-12-18T11:28:28.756Z,62.56
2022-12-18T11:31:16.068Z,64.04
2022-12-18T11:34:19.666Z,63.57
2022-12-18T11:36:45.707Z,63.65
2022-12-18T11:39:24.363Z,63.59
2022-12-18T11:42:13.611Z,62.21
2022-12-18T11:44:49.720Z,63.62
2022-12-18T11:47:32.294Z,63.17
2022-12-18T11:50:04.806Z,63.34
2022-12-18T11:52:41.718Z,62.84
2022-12-18T11:55:18.062Z,64.14
2022-12-18T11:57:58.871Z,63.30
2022-12-18T12:00:28.756Z,63.90
2022-12-18T12:03:27.924Z,64.22
2022-12-18T12:06:09.533Z,64.03
2022-12-18T12:08:51.250Z,63.90
2022-12-18T12:11:35.295Z,65.54
2022-12-18T12:14:27.419Z,63.81
2022-12-18T12:17:02.654Z,65.18
2022-12-18T12:19:43.831Z,64.43
2022-12-18T12:22:20.981Z,65.09
2022-12-18T12:25:05.529Z,64.85
2022-12-18T12:27:46.956Z,63.73
2022-12-18T12:30:23.516Z,64.11
2022-12-18T12:33:09.457Z,62.66
2022-12-18T12:35:51.317Z,61.27
2022-12-18T12:38:25.285Z,61.50
2022-12-18T12:41:03.056Z,62.32
2022-12-18T12:43:47.697Z,61.64
2022-12-18T12:46:22.751Z,61.93
2022-12-18T12:48:56.590Z,62.00
2022-12-18T12:51:29.857Z,62.80
2022-12-18T12:54:01.810Z,61.94
2022-12-18T12:56:36.587Z,61.75
2022-12-18T12:59:20.072Z,62.10
2022-12-18T13:01:59.015Z,62.47
2022-12-18T13:04:39.908Z,62.86
2022-12-18T13:07:18.358Z,63.33
2022-12-18T13:10:17.767Z,63.00
2022-12-18T13:13:09.066Z,63.40
2022-12-18T13:15:47.038Z,62.14
2022-12-18T13:18:23.677Z,62.41
2022-12-18T13:21:01.179Z,62.79
2022-12-18T13:23:37.452Z,62.24
2022-12-18T13:26:36.865Z,62.65
2022-12-18T13:29:07.830Z,62.97
2022-12-18T13:32:15.820Z,64.25
2022-12-18T13:34:51.856Z,64.81
2022-12-18T13:37:47.289Z,64.44
2022-12-18T13:41:01.822Z,64.57
2022-12-18T13:43:44.441Z,65.23
2022-12-18T13:46:26.608Z,64.72
2022-12-18T13:49:00.767Z,65.48
2022-12-18T13:51:36.611Z,65.43
2022-12-18T13:54:19.648Z,66.84
2022-12-18T13:56:51.642Z,66.87
2022-12-18T13:59:24.842Z,66.73
2022-12-18T14:01:58.491Z,65.61
2022-12-18T14:04:31.121Z,65.81
2022-12-18T14:07:08.160Z,65.54
2022-12-18T14:09:40.867Z,66.38
2022-12-18T14:12:30.756Z,66.32
2022-12-18T14:15:00.452Z,66.82
2022-12-18T14:17:30.640Z,66.40
2022-12-18T14:20:01.280Z,66.51
2022-12-18T14:22:34.697Z,66.52
2022-12-18T14:25:19.922Z,67.14
2022-12-18T14:27:51.449Z,66.76
2022-12-18T14:30:29.227Z,66.55
2022-12-18T14:33:06.865Z,67.02
2022-12-18T14:35:38.679Z,67.40
2022-12-18T14:38:24.279Z,67.46
2022-12-18T14:40:59.038Z,67.70
2022-12-18T14:43:29.277Z,67.38
2022-12-18T14:46:00.197Z,67.84
2022-12-18T14:48:39.714Z,68.05
2022-12-18T14:51:18.723Z,67.89
2022-12-18T14:53:55.006Z,68.69
2022-12-18T14:56:27.344Z,69.11
2022-12-18T14:58:59.260Z,69.02
2022-12-18T15:01:35.286Z,68.95
2022-12-18T15:04:05.982Z,69.07
2022-12-18T15:06:38.143Z,69.78
2022-12-18T15:09:25.910Z,68.93
2022-12-18T15:11:59.944Z,69.19
2022-12-18T15:14:38.791Z,69.00
2022-12-18T15:17:18.171Z,68.67
2022-12-18T15:19:49.133Z,68.77
2022-12-18T15:22:25.151Z,69.01
2022-12-18T15:24:58.695Z,69.51
2022-12-18T15:27:32.084Z,69.63
2022-12-18T15:30:20.667Z,70.25
2022-12-18T15:32:50.916Z,70.25
2022-12-18T15:35:22.999Z,70.97
2022-12-18T15:37:53.397Z,70.50
2022-12-18T15:40:27.264Z,70.74
2022-12-18T15:43:11.428Z,71.65
2022-12-18T15:45:41.046Z,71.76
2022-12-18T15:48:24.794Z,71.29
2022-12-18T15:50:57.744Z,71.83
2022-12-18T15:53:28.173Z,71.96
2022-12-18T15:56:13.900Z,71.28
2022-12-18T15:58:43.900Z,70.84
2022-12-18T16:01:15.096Z,70.78
2022-12-18T16:03:45.409Z,70.89
2022-12-18T16:06:15.696Z,70.62
2022-12-18T16:08:45.306Z,70.71
2022-12-18T16:11:39.032Z,71.52
2022-12-18T16:14:10.470Z,70.67
2022-12-18T16:16:39.951Z,70.87
2022-12-18T16:19:09.536Z,71.04
2022-12-18T16:21:39.213Z,71.13
2022-12-18T16:24:15.124Z,71.39
2022-12-18T16:26:47.542Z,71.32
2022-12-18T16:29:17.577Z,71.78
2022-12-18T16:31:47.632Z,71.14
2022-12-18T16:34:25.006Z,72.00
2022-12-18T16:37:04.916Z,71.54
2022-12-18T16:39:35.818Z,71.74
2022-12-18T16:42:10.314Z,72.05
2022-12-18T16:44:39.916Z,72.15
2022-12-18T16:47:10.272Z,71.41
2022-12-18T16:49:45.903Z,71.37
2022-12-18T16:52:16.339Z,71.26
2022-12-18T16:54:47.718Z,71.23
2022-12-18T16:57:25.182Z,71.13
2022-12-18T16:59:57.724Z,71.39
2022-12-18T17:02:31.361Z,70.79
2022-12-18T17:05:02.491Z,70.18
2022-12-18T17:07:32.237Z,70.54
2022-12-18T17:10:01.801Z,69.91
2022-12-18T17:12:33.962Z,69.49
2022-12-18T17:15:03.464Z,69.25
2022-12-18T17:17:33.052Z,70.17
2022-12-18T17:20:03.050Z,70.01
2022-12-18T17:22:35.118Z,69.15
2022-12-18T17:25:04.759Z,68.74
2022-12-18T17:27:36.908Z,68.44
2022-12-18T17:30:07.381Z,68.87
2022-12-18T17:32:36.953Z,68.44
2022-12-18T17:35:07.662Z,67.66
2022-12-18T17:37:38.264Z,67.76
2022-12-18T17:40:09.475Z,68.07
2022-12-18T17:42:41.598Z,67.55
2022-12-18T17:45:12.378Z,67.14
2022-12-18T17:47:42.291Z,67.15
2022-12-18T17:50:12.552Z,66.91
2022-12-18T17:52:42.171Z,67.60
2022-12-18T17:55:12.710Z,67.24
2022-12-18T17:57:44.887Z,67.08
2022-12-18T18:00:15.737Z,68.01
2022-12-18T18:02:45.521Z,67.64
2022-12-18T18:05:15.744Z,67.57
2022-12-18T18:07:47.532Z,67.11
2022-12-18T18:10:17.105Z,67.08
2022-12-18T18:13:01.702Z,66.73
2022-12-18T18:15:31.291Z,66.92
2022-12-18T18:18:00.846Z,67.08
2022-12-18T18:20:32.390Z,66.95
2022-12-18T18:23:02.052Z,66.84
2022-12-18T18:25:31.801Z,66.93
2022-12-18T18:28:03.994Z,66.28
2022-12-18T18:30:33.639Z,65.86
2022-12-18T18:33:05.515Z,66.25
2022-12-18T18:35:53.727Z,65.50
2022-12-18T18:38:23.928Z,65.55
2022-12-18T18:41:01.116Z,64.76
2022-12-18T18:43:34.105Z,64.33
2022-12-18T18:46:05.928Z,64.39
2022-12-18T18:48:41.662Z,63.45
2022-12-18T18:51:20.159Z,62.88
2022-12-18T18:53:53.219Z,63.11
2022-12-18T18:59:16.603Z,62.48
2022-12-18T19:01:46.698Z,63.11
2022-12-18T19:04:16.492Z,63.53
2022-12-18T19:06:47.741Z,61.58
2022-12-18T19:09:18.490Z,62.44
2022-12-18T19:12:00.755Z,62.52
2022-12-18T19:14:33.162Z,61.45
2022-12-18T19:17:02.784Z,62.63
2022-12-18T19:19:33.956Z,62.63
2022-12-18T19:22:03.862Z,62.35
2022-12-18T19:24:34.796Z,62.31
2022-12-18T19:27:04.350Z,61.86
2022-12-18T19:29:36.837Z,61.53
2022-12-18T19:32:10.465Z,61.07
2022-12-18T19:34:42.068Z,61.30
2022-12-18T19:37:13.620Z,61.06
2022-12-18T19:39:43.327Z,59.45
2022-12-18T19:42:12.907Z,61.22
2022-12-18T19:44:45.575Z,59.36
2022-12-18T19:47:15.086Z,59.10
2022-12-18T19:49:44.656Z,59.41
2022-12-18T19:52:16.180Z,58.83
2022-12-18T19:54:47.406Z,59.74
2022-12-18T19:57:16.910Z,60.69
2022-12-18T19:59:49.040Z,60.74
2022-12-18T20:02:19.232Z,59.82
2022-12-18T20:04:48.998Z,60.48
2022-12-18T20:07:18.485Z,60.19
2022-12-18T20:09:48.004Z,60.83
2022-12-18T20:12:17.712Z,60.89
2022-12-18T20:14:50.022Z,59.98
2022-12-18T20:17:19.583Z,60.07
2022-12-18T20:19:49.487Z,60.07
2022-12-18T20:22:19.004Z,60.87
2022-12-18T20:24:48.559Z,60.53
2022-12-18T20:27:19.636Z,60.16
2022-12-18T20:29:51.927Z,59.25
2022-12-18T20:32:21.517Z,59.86
2022-12-18T20:34:51.035Z,59.94
2022-12-18T20:37:21.707Z,59.51
2022-12-18T20:39:53.143Z,59.94
2022-12-18T20:42:23.649Z,59.91
2022-12-18T20:44:55.760Z,60.79
2022-12-18T20:47:25.371Z,60.67
2022-12-18T20:49:55.031Z,61.06
2022-12-18T20:52:24.935Z,60.45
2022-12-18T20:54:54.474Z,61.37
2022-12-18T20:57:26.691Z,60.32
2022-12-18T20:59:58.765Z,60.76
2022-12-18T21:02:28.464Z,60.31
2022-12-18T21:04:58.083Z,60.55
2022-12-18T21:07:27.593Z,60.33
2022-12-18T21:09:57.096Z,60.47
2022-12-18T21:12:42.834Z,60.02
2022-12-18T21:15:28.362Z,60.28
2022-12-18T21:17:58.356Z,60.82
2022-12-18T21:20:27.920Z,60.96
2022-12-18T21:23:02.800Z,61.23
2022-12-18T21:25:47.560Z,60.78
2022-12-18T21:28:20.857Z,61.10
2022-12-18T21:30:53.185Z,61.36
2022-12-18T21:33:22.691Z,61.18
2022-12-18T21:35:52.236Z,61.82
2022-12-18T21:38:21.764Z,61.70
2022-12-18T21:40:51.765Z,61.81
2022-12-18T21:43:33.728Z,62.27
2022-12-18T21:46:05.876Z,61.91
2022-12-18T21:48:38.452Z,61.61
2022-12-18T21:51:08.260Z,61.89
2022-12-18T21:53:37.824Z,62.07
2022-12-18T21:56:07.970Z,62.13
2022-12-18T21:58:37.479Z,62.18
2022-12-18T22:01:09.748Z,62.12
2022-12-18T22:03:39.447Z,62.13
2022-12-18T22:06:09.888Z,62.17
2022-12-18T22:08:42.084Z,62.46
2022-12-18T22:11:15.171Z,62.41
2022-12-18T22:13:46.875Z,62.87
2022-12-18T22:16:19.127Z,62.70
2022-12-18T22:18:48.645Z,62.74
2022-12-18T22:21:29.386Z,62.86
2022-12-18T22:24:00.716Z,62.89
2022-12-18T22:26:36.405Z,62.73
2022-12-18T22:29:21.612Z,62.66
2022-12-18T22:31:53.928Z,62.50
2022-12-18T22:34:23.553Z,62.53
2022-12-18T22:36:53.505Z,63.01
2022-12-18T22:39:25.958Z,62.57
2022-12-18T22:41:58.583Z,62.73
2022-12-18T22:44:28.463Z,63.09
2022-12-18T22:47:06.174Z,62.95
2022-12-18T22:49:36.804Z,63.08
2022-12-18T22:52:07.033Z,63.17
2022-12-18T22:54:36.802Z,63.47
2022-12-18T22:57:06.547Z,63.30
2022-12-18T22:59:36.838Z,63.32
2022-12-18T23:02:09.050Z,63.10
2022-12-18T23:04:38.833Z,63.30
2022-12-18T23:07:09.203Z,63.56
2022-12-18T23:09:40.845Z,63.08
2022-12-18T23:12:11.003Z,63.34
2022-12-18T23:14:40.634Z,63.12
2022-12-18T23:17:12.849Z,63.24
2022-12-18T23:19:48.551Z,62.90
2022-12-18T23:22:18.697Z,63.06
2022-12-18T23:24:49.022Z,63.31
2022-12-18T23:27:18.561Z,63.24
2022-12-18T23:29:48.039Z,63.05
2022-12-18T23:32:21.379Z,63.21
2022-12-18T23:34:50.872Z,63.03
2022-12-18T23:37:49.809Z,63.33
2022-12-18T23:40:13.470Z,63.46
2022-12-18T23:42:42.980Z,63.30
2022-12-18T23:45:16.549Z,63.49
2022-12-18T23:47:51.263Z,63.75
2022-12-18T23:50:24.025Z,63.82
2022-12-18T23:53:02.094Z,63.60
2022-12-18T23:55:35.433Z,63.47
2022-12-18T23:58:04.986Z,63.44
